RAAF Base Curtin
YCIN : now visible

Airfield :











YOU CAN JOIN US ON...

 
LOGIN :

Register | Disclaimer

   EN    FR    IT 

 









Legend :    VFR   Marginal VFR   IFR   Intensive IFR   Very Intensive IFR
Visi :
Ceiling :
>= 8 km
>= 3000ft
5 to 8 km
1000 to 3000 ft
1500m to 5 km
500 to 1000 ft
800 to 1500m
200 to 500 ft
< 800m
< 200 ft
Symbols :   Thunderstorms  Fog  Heavy snow  Heavy precipitations  Wind > 20 kt






- Airport Elevation : 300 ft


YCIN - RAAF Base Curtin

CURRENT METAR :
  • 191730Z AUTO 14013KT 9999 // NCD 23/02 Q1015 RF00.0/000.0

EXPIRED METARs :
  • 191700Z AUTO 14011KT 9999 // NCD 23/02 Q1015 RF00.0/000.0
  • 191630Z AUTO 15011KT 9999 // NCD 23/02 Q1015 RF00.0/000.0
  • 191600Z AUTO 15010KT 9999 // NCD 22/03 Q1015 RF00.0/000.0
  • 191530Z AUTO 15008KT 9999 // NCD 22/03 Q1015 RF00.0/000.0
  • 191500Z AUTO 15008KT 9999 // NCD 22/03 Q1015 RF00.0/000.0

TAF TAF YCIN
Valid from the 19 at 14:00 until the 20 at 02:00 UTC


191156Z 1914/2002 13012KT CAVOK
FM200000 10020KT CAVOK
YBBB FIR / Oceania



MET'MAP, your aeronautical weather chart ! - Copyright ORBIFLY December 2007 - Disclaimer

ORBIFLY MET'MAP TEAM :

Programming & Development : Alexandra Zaïnal
Original concept : Baudouin d'Aumeries
Technical & hardware support : Manuel Goepfert
Assistance : Marc-Olivier Méhu




SOURCES & CREDITS :

   NOAA       Earth
Advisory